sensor_id;sensor_type;location;lat;lon;timestamp;temperature;humidity
69206;SHT30;56319;48.920;2.332;2023-03-20T00:01:12;21.63;34.55
69206;SHT30;56319;48.920;2.332;2023-03-20T00:03:38;21.65;34.55
69206;SHT30;56319;48.920;2.332;2023-03-20T00:06:14;21.63;34.57
69206;SHT30;56319;48.920;2.332;2023-03-20T00:08:40;21.62;34.57
69206;SHT30;56319;48.920;2.332;2023-03-20T00:11:14;21.62;34.53
69206;SHT30;56319;48.920;2.332;2023-03-20T00:13:46;21.62;34.59
69206;SHT30;56319;48.920;2.332;2023-03-20T00:16:12;21.61;34.54
69206;SHT30;56319;48.920;2.332;2023-03-20T00:18:37;21.62;34.55
69206;SHT30;56319;48.920;2.332;2023-03-20T00:21:03;21.63;34.55
69206;SHT30;56319;48.920;2.332;2023-03-20T00:23:29;21.61;34.62
69206;SHT30;56319;48.920;2.332;2023-03-20T00:25:55;21.61;34.56
69206;SHT30;56319;48.920;2.332;2023-03-20T00:28:36;21.61;34.56
69206;SHT30;56319;48.920;2.332;2023-03-20T00:31:04;21.59;34.58
69206;SHT30;56319;48.920;2.332;2023-03-20T00:33:31;21.59;34.53
69206;SHT30;56319;48.920;2.332;2023-03-20T00:35:56;21.58;34.54
69206;SHT30;56319;48.920;2.332;2023-03-20T00:38:23;21.58;34.55
69206;SHT30;56319;48.920;2.332;2023-03-20T00:40:49;21.58;34.56
69206;SHT30;56319;48.920;2.332;2023-03-20T00:43:15;21.58;34.52
69206;SHT30;56319;48.920;2.332;2023-03-20T00:45:44;21.56;34.54
69206;SHT30;56319;48.920;2.332;2023-03-20T00:48:13;21.58;34.62
69206;SHT30;56319;48.920;2.332;2023-03-20T00:50:41;21.58;34.57
69206;SHT30;56319;48.920;2.332;2023-03-20T00:53:09;21.54;34.54
69206;SHT30;56319;48.920;2.332;2023-03-20T00:55:36;21.54;34.56
69206;SHT30;56319;48.920;2.332;2023-03-20T00:58:03;21.55;34.53
69206;SHT30;56319;48.920;2.332;2023-03-20T01:00:36;21.55;34.53
69206;SHT30;56319;48.920;2.332;2023-03-20T01:03:11;21.52;34.57
69206;SHT30;56319;48.920;2.332;2023-03-20T01:05:38;21.54;34.56
69206;SHT30;56319;48.920;2.332;2023-03-20T01:08:11;21.52;34.60
69206;SHT30;56319;48.920;2.332;2023-03-20T01:10:37;21.54;34.58
69206;SHT30;56319;48.920;2.332;2023-03-20T01:13:02;21.54;34.61
69206;SHT30;56319;48.920;2.332;2023-03-20T01:15:31;21.51;34.57
69206;SHT30;56319;48.920;2.332;2023-03-20T01:17:57;21.51;34.59
69206;SHT30;56319;48.920;2.332;2023-03-20T01:20:26;21.54;34.58
69206;SHT30;56319;48.920;2.332;2023-03-20T01:22:52;21.49;34.57
69206;SHT30;56319;48.920;2.332;2023-03-20T01:25:19;21.52;34.61
69206;SHT30;56319;48.920;2.332;2023-03-20T01:27:50;21.52;34.64
69206;SHT30;56319;48.920;2.332;2023-03-20T01:30:22;21.51;34.58
69206;SHT30;56319;48.920;2.332;2023-03-20T01:32:48;21.48;34.63
69206;SHT30;56319;48.920;2.332;2023-03-20T01:35:17;21.49;34.63
69206;SHT30;56319;48.920;2.332;2023-03-20T01:37:44;21.49;34.62
69206;SHT30;56319;48.920;2.332;2023-03-20T01:40:18;21.49;34.63
69206;SHT30;56319;48.920;2.332;2023-03-20T01:42:48;21.49;34.57
69206;SHT30;56319;48.920;2.332;2023-03-20T01:45:16;21.48;34.60
69206;SHT30;56319;48.920;2.332;2023-03-20T01:47:42;21.45;34.63
69206;SHT30;56319;48.920;2.332;2023-03-20T01:50:20;21.47;34.64
69206;SHT30;56319;48.920;2.332;2023-03-20T01:52:49;21.47;34.62
69206;SHT30;56319;48.920;2.332;2023-03-20T01:55:16;21.47;34.62
69206;SHT30;56319;48.920;2.332;2023-03-20T01:57:42;21.47;34.60
69206;SHT30;56319;48.920;2.332;2023-03-20T02:00:10;21.44;34.64
69206;SHT30;56319;48.920;2.332;2023-03-20T02:02:38;21.45;34.67
69206;SHT30;56319;48.920;2.332;2023-03-20T02:05:09;21.45;34.60
69206;SHT30;56319;48.920;2.332;2023-03-20T02:07:37;21.48;34.59
69206;SHT30;56319;48.920;2.332;2023-03-20T02:10:08;21.44;34.62
69206;SHT30;56319;48.920;2.332;2023-03-20T02:12:34;21.42;34.68
69206;SHT30;56319;48.920;2.332;2023-03-20T02:15:01;21.41;34.64
69206;SHT30;56319;48.920;2.332;2023-03-20T02:17:27;21.42;34.67
69206;SHT30;56319;48.920;2.332;2023-03-20T02:20:35;21.42;34.65
69206;SHT30;56319;48.920;2.332;2023-03-20T02:29:31;21.41;34.64
69206;SHT30;56319;48.920;2.332;2023-03-20T02:38:31;21.38;34.65
69206;SHT30;56319;48.920;2.332;2023-03-20T02:41:22;21.38;34.68
69206;SHT30;56319;48.920;2.332;2023-03-20T02:44:18;21.38;34.69
69206;SHT30;56319;48.920;2.332;2023-03-20T02:47:06;21.37;34.66
69206;SHT30;56319;48.920;2.332;2023-03-20T02:49:51;21.39;34.69
69206;SHT30;56319;48.920;2.332;2023-03-20T02:52:36;21.37;34.68
69206;SHT30;56319;48.920;2.332;2023-03-20T02:58:21;21.35;34.69
69206;SHT30;56319;48.920;2.332;2023-03-20T03:00:56;21.37;34.69
69206;SHT30;56319;48.920;2.332;2023-03-20T03:03:34;21.35;34.70
69206;SHT30;56319;48.920;2.332;2023-03-20T03:06:10;21.37;34.74
69206;SHT30;56319;48.920;2.332;2023-03-20T03:08:43;21.35;34.75
69206;SHT30;56319;48.920;2.332;2023-03-20T03:11:09;21.34;34.70
69206;SHT30;56319;48.920;2.332;2023-03-20T03:13:38;21.38;34.75
69206;SHT30;56319;48.920;2.332;2023-03-20T03:16:10;21.37;34.76
69206;SHT30;56319;48.920;2.332;2023-03-20T03:18:38;21.35;34.77
69206;SHT30;56319;48.920;2.332;2023-03-20T03:21:06;21.35;34.75
69206;SHT30;56319;48.920;2.332;2023-03-20T03:23:39;21.35;34.70
69206;SHT30;56319;48.920;2.332;2023-03-20T03:26:13;21.34;34.77
69206;SHT30;56319;48.920;2.332;2023-03-20T03:28:43;21.34;34.71
69206;SHT30;56319;48.920;2.332;2023-03-20T03:31:12;21.35;34.73
69206;SHT30;56319;48.920;2.332;2023-03-20T03:33:43;21.37;34.73
69206;SHT30;56319;48.920;2.332;2023-03-20T03:39:13;21.32;34.75
69206;SHT30;56319;48.920;2.332;2023-03-20T03:41:48;21.34;34.77
69206;SHT30;56319;48.920;2.332;2023-03-20T03:44:25;21.34;34.73
69206;SHT30;56319;48.920;2.332;2023-03-20T03:46:56;21.35;34.77
69206;SHT30;56319;48.920;2.332;2023-03-20T03:49:28;21.34;34.66
69206;SHT30;56319;48.920;2.332;2023-03-20T03:51:59;21.34;34.73
69206;SHT30;56319;48.920;2.332;2023-03-20T03:54:31;21.34;34.74
69206;SHT30;56319;48.920;2.332;2023-03-20T03:57:00;21.32;34.76
69206;SHT30;56319;48.920;2.332;2023-03-20T03:59:32;21.32;34.75
69206;SHT30;56319;48.920;2.332;2023-03-20T04:01:59;21.32;34.71
69206;SHT30;56319;48.920;2.332;2023-03-20T04:04:29;21.31;34.70
69206;SHT30;56319;48.920;2.332;2023-03-20T04:06:55;21.31;34.70
69206;SHT30;56319;48.920;2.332;2023-03-20T04:09:21;21.32;34.74
69206;SHT30;56319;48.920;2.332;2023-03-20T04:11:49;21.31;34.70
69206;SHT30;56319;48.920;2.332;2023-03-20T04:14:15;21.32;34.71
69206;SHT30;56319;48.920;2.332;2023-03-20T04:16:42;21.32;34.72
69206;SHT30;56319;48.920;2.332;2023-03-20T04:19:08;21.31;34.74
69206;SHT30;56319;48.920;2.332;2023-03-20T04:21:33;21.30;34.70
69206;SHT30;56319;48.920;2.332;2023-03-20T04:23:59;21.30;34.74
69206;SHT30;56319;48.920;2.332;2023-03-20T04:26:25;21.31;34.74
69206;SHT30;56319;48.920;2.332;2023-03-20T04:28:50;21.30;34.78
69206;SHT30;56319;48.920;2.332;2023-03-20T04:31:16;21.30;34.73
69206;SHT30;56319;48.920;2.332;2023-03-20T04:33:42;21.28;34.75
69206;SHT30;56319;48.920;2.332;2023-03-20T04:36:08;21.30;34.76
69206;SHT30;56319;48.920;2.332;2023-03-20T04:38:35;21.31;34.73
69206;SHT30;56319;48.920;2.332;2023-03-20T04:41:01;21.30;34.76
69206;SHT30;56319;48.920;2.332;2023-03-20T04:43:27;21.27;34.75
69206;SHT30;56319;48.920;2.332;2023-03-20T04:45:52;21.28;34.74
69206;SHT30;56319;48.920;2.332;2023-03-20T04:48:18;21.30;34.76
69206;SHT30;56319;48.920;2.332;2023-03-20T04:50:43;21.30;34.75
69206;SHT30;56319;48.920;2.332;2023-03-20T04:53:13;21.30;34.75
69206;SHT30;56319;48.920;2.332;2023-03-20T04:55:39;21.30;34.71
69206;SHT30;56319;48.920;2.332;2023-03-20T04:58:05;21.28;34.72
69206;SHT30;56319;48.920;2.332;2023-03-20T05:00:32;21.28;34.72
69206;SHT30;56319;48.920;2.332;2023-03-20T05:02:58;21.28;34.76
69206;SHT30;56319;48.920;2.332;2023-03-20T05:05:23;21.28;34.79
69206;SHT30;56319;48.920;2.332;2023-03-20T05:07:51;21.27;34.79
69206;SHT30;56319;48.920;2.332;2023-03-20T05:10:17;21.27;34.79
69206;SHT30;56319;48.920;2.332;2023-03-20T05:12:43;21.27;34.76
69206;SHT30;56319;48.920;2.332;2023-03-20T05:15:09;21.27;34.81
69206;SHT30;56319;48.920;2.332;2023-03-20T05:17:35;21.26;34.80
69206;SHT30;56319;48.920;2.332;2023-03-20T05:20:01;21.26;34.77
69206;SHT30;56319;48.920;2.332;2023-03-20T05:22:26;21.24;34.79
69206;SHT30;56319;48.920;2.332;2023-03-20T05:24:52;21.26;34.76
69206;SHT30;56319;48.920;2.332;2023-03-20T05:27:17;21.24;34.80
69206;SHT30;56319;48.920;2.332;2023-03-20T05:29:43;21.26;34.79
69206;SHT30;56319;48.920;2.332;2023-03-20T05:32:09;21.26;34.74
69206;SHT30;56319;48.920;2.332;2023-03-20T05:34:34;21.27;34.73
69206;SHT30;56319;48.920;2.332;2023-03-20T05:37:00;21.26;34.77
69206;SHT30;56319;48.920;2.332;2023-03-20T05:39:25;21.24;34.76
69206;SHT30;56319;48.920;2.332;2023-03-20T05:41:51;21.24;34.80
69206;SHT30;56319;48.920;2.332;2023-03-20T05:44:16;21.26;34.79
69206;SHT30;56319;48.920;2.332;2023-03-20T05:46:42;21.24;34.81
69206;SHT30;56319;48.920;2.332;2023-03-20T05:49:07;21.26;34.77
69206;SHT30;56319;48.920;2.332;2023-03-20T05:51:33;21.26;34.79
69206;SHT30;56319;48.920;2.332;2023-03-20T05:53:58;21.24;34.79
69206;SHT30;56319;48.920;2.332;2023-03-20T05:56:24;21.21;34.82
69206;SHT30;56319;48.920;2.332;2023-03-20T05:58:50;21.23;34.80
69206;SHT30;56319;48.920;2.332;2023-03-20T06:01:16;21.26;34.82
69206;SHT30;56319;48.920;2.332;2023-03-20T06:03:46;21.24;34.79
69206;SHT30;56319;48.920;2.332;2023-03-20T06:06:13;21.24;34.79
69206;SHT30;56319;48.920;2.332;2023-03-20T06:08:39;21.23;34.80
69206;SHT30;56319;48.920;2.332;2023-03-20T06:11:05;21.24;34.85
69206;SHT30;56319;48.920;2.332;2023-03-20T06:13:30;21.24;34.80
69206;SHT30;56319;48.920;2.332;2023-03-20T06:15:56;21.23;34.82
69206;SHT30;56319;48.920;2.332;2023-03-20T06:18:22;21.24;34.80
69206;SHT30;56319;48.920;2.332;2023-03-20T06:20:53;21.24;34.84
69206;SHT30;56319;48.920;2.332;2023-03-20T06:23:20;21.21;34.82
69206;SHT30;56319;48.920;2.332;2023-03-20T06:25:45;21.24;34.85
69206;SHT30;56319;48.920;2.332;2023-03-20T06:28:11;21.24;34.85
69206;SHT30;56319;48.920;2.332;2023-03-20T06:30:37;21.27;34.85
69206;SHT30;56319;48.920;2.332;2023-03-20T06:33:04;21.24;34.80
69206;SHT30;56319;48.920;2.332;2023-03-20T06:35:30;21.26;34.79
69206;SHT30;56319;48.920;2.332;2023-03-20T06:37:57;21.23;34.74
69206;SHT30;56319;48.920;2.332;2023-03-20T06:40:23;21.23;34.78
69206;SHT30;56319;48.920;2.332;2023-03-20T06:42:49;21.21;34.80
69206;SHT30;56319;48.920;2.332;2023-03-20T06:45:14;21.21;34.77
69206;SHT30;56319;48.920;2.332;2023-03-20T06:47:40;21.21;34.77
69206;SHT30;56319;48.920;2.332;2023-03-20T06:50:07;21.21;34.75
69206;SHT30;56319;48.920;2.332;2023-03-20T06:52:33;21.20;34.68
69206;SHT30;56319;48.920;2.332;2023-03-20T06:54:58;21.19;34.70
69206;SHT30;56319;48.920;2.332;2023-03-20T06:57:24;21.21;34.74
69206;SHT30;56319;48.920;2.332;2023-03-20T06:59:50;21.20;34.73
69206;SHT30;56319;48.920;2.332;2023-03-20T07:02:15;21.21;34.75
69206;SHT30;56319;48.920;2.332;2023-03-20T07:04:41;21.21;34.67
69206;SHT30;56319;48.920;2.332;2023-03-20T07:07:06;21.23;34.66
69206;SHT30;56319;48.920;2.332;2023-03-20T07:09:32;21.21;34.70
69206;SHT30;56319;48.920;2.332;2023-03-20T07:11:58;21.21;34.63
69206;SHT30;56319;48.920;2.332;2023-03-20T07:14:24;21.23;34.61
69206;SHT30;56319;48.920;2.332;2023-03-20T07:16:50;21.23;34.62
69206;SHT30;56319;48.920;2.332;2023-03-20T07:19:16;21.21;34.63
69206;SHT30;56319;48.920;2.332;2023-03-20T07:21:43;21.21;34.63
69206;SHT30;56319;48.920;2.332;2023-03-20T07:24:08;21.23;34.59
69206;SHT30;56319;48.920;2.332;2023-03-20T07:26:34;21.24;34.59
69206;SHT30;56319;48.920;2.332;2023-03-20T07:28:59;21.26;34.51
69206;SHT30;56319;48.920;2.332;2023-03-20T07:31:27;21.30;34.88
69206;SHT30;56319;48.920;2.332;2023-03-20T07:33:55;21.31;35.04
69206;SHT30;56319;48.920;2.332;2023-03-20T07:36:21;21.37;35.24
69206;SHT30;56319;48.920;2.332;2023-03-20T07:38:46;21.37;35.35
69206;SHT30;56319;48.920;2.332;2023-03-20T07:41:12;21.38;35.62
69206;SHT30;56319;48.920;2.332;2023-03-20T07:43:38;21.45;36.10
69206;SHT30;56319;48.920;2.332;2023-03-20T07:46:05;21.48;36.24
69206;SHT30;56319;48.920;2.332;2023-03-20T07:48:31;21.54;36.41
69206;SHT30;56319;48.920;2.332;2023-03-20T07:50:56;21.58;36.64
69206;SHT30;56319;48.920;2.332;2023-03-20T07:53:22;21.66;36.68
69206;SHT30;56319;48.920;2.332;2023-03-20T07:55:48;21.69;36.71
69206;SHT30;56319;48.920;2.332;2023-03-20T07:58:13;21.78;36.88
69206;SHT30;56319;48.920;2.332;2023-03-20T08:00:39;21.83;37.00
69206;SHT30;56319;48.920;2.332;2023-03-20T08:03:05;21.88;36.90
69206;SHT30;56319;48.920;2.332;2023-03-20T08:05:32;21.92;37.01
69206;SHT30;56319;48.920;2.332;2023-03-20T08:07:58;21.97;37.05
69206;SHT30;56319;48.920;2.332;2023-03-20T08:10:23;22.04;37.08
69206;SHT30;56319;48.920;2.332;2023-03-20T08:12:49;22.09;37.06
69206;SHT30;56319;48.920;2.332;2023-03-20T08:15:14;22.14;37.01
69206;SHT30;56319;48.920;2.332;2023-03-20T08:17:43;22.14;37.09
69206;SHT30;56319;48.920;2.332;2023-03-20T08:20:09;22.21;37.11
69206;SHT30;56319;48.920;2.332;2023-03-20T08:22:35;22.24;37.10
69206;SHT30;56319;48.920;2.332;2023-03-20T08:25:01;22.30;37.19
69206;SHT30;56319;48.920;2.332;2023-03-20T08:27:26;22.31;37.23
69206;SHT30;56319;48.920;2.332;2023-03-20T08:29:52;22.37;37.18
69206;SHT30;56319;48.920;2.332;2023-03-20T08:32:17;22.38;37.14
69206;SHT30;56319;48.920;2.332;2023-03-20T08:34:43;22.43;37.24
69206;SHT30;56319;48.920;2.332;2023-03-20T08:37:09;22.48;37.36
69206;SHT30;56319;48.920;2.332;2023-03-20T08:39:36;22.48;37.17
69206;SHT30;56319;48.920;2.332;2023-03-20T08:42:04;22.52;37.29
69206;SHT30;56319;48.920;2.332;2023-03-20T08:44:29;22.54;37.37
69206;SHT30;56319;48.920;2.332;2023-03-20T08:46:55;22.58;37.32
69206;SHT30;56319;48.920;2.332;2023-03-20T08:49:21;22.61;37.34
69206;SHT30;56319;48.920;2.332;2023-03-20T08:51:46;22.62;37.27
69206;SHT30;56319;48.920;2.332;2023-03-20T08:54:12;22.71;37.30
69206;SHT30;56319;48.920;2.332;2023-03-20T08:56:39;22.68;37.43
69206;SHT30;56319;48.920;2.332;2023-03-20T08:59:05;22.73;37.43
69206;SHT30;56319;48.920;2.332;2023-03-20T09:01:30;22.73;37.50
69206;SHT30;56319;48.920;2.332;2023-03-20T09:03:56;22.76;37.45
69206;SHT30;56319;48.920;2.332;2023-03-20T09:06:22;22.79;37.32
69206;SHT30;56319;48.920;2.332;2023-03-20T09:08:48;22.79;37.34
69206;SHT30;56319;48.920;2.332;2023-03-20T09:11:13;22.77;37.33
69206;SHT30;56319;48.920;2.332;2023-03-20T09:13:39;22.76;37.24
69206;SHT30;56319;48.920;2.332;2023-03-20T09:16:05;22.76;37.20
69206;SHT30;56319;48.920;2.332;2023-03-20T09:18:31;22.73;37.20
69206;SHT30;56319;48.920;2.332;2023-03-20T09:20:56;22.72;37.16
69206;SHT30;56319;48.920;2.332;2023-03-20T09:23:22;22.69;37.18
69206;SHT30;56319;48.920;2.332;2023-03-20T09:25:48;22.69;37.13
69206;SHT30;56319;48.920;2.332;2023-03-20T09:28:13;22.65;37.06
69206;SHT30;56319;48.920;2.332;2023-03-20T09:30:39;22.62;37.07
69206;SHT30;56319;48.920;2.332;2023-03-20T09:33:05;22.61;37.00
69206;SHT30;56319;48.920;2.332;2023-03-20T09:35:31;22.58;36.98
69206;SHT30;56319;48.920;2.332;2023-03-20T09:37:57;22.56;37.01
69206;SHT30;56319;48.920;2.332;2023-03-20T09:40:26;22.61;37.57
69206;SHT30;56319;48.920;2.332;2023-03-20T09:43:07;22.58;37.85
69206;SHT30;56319;48.920;2.332;2023-03-20T09:45:54;22.63;37.98
69206;SHT30;56319;48.920;2.332;2023-03-20T09:48:34;22.72;38.01
69206;SHT30;56319;48.920;2.332;2023-03-20T09:51:30;22.73;38.24
69206;SHT30;56319;48.920;2.332;2023-03-20T09:54:03;22.80;38.18
69206;SHT30;56319;48.920;2.332;2023-03-20T09:56:31;22.82;38.24
69206;SHT30;56319;48.920;2.332;2023-03-20T09:59:00;22.85;38.22
69206;SHT30;56319;48.920;2.332;2023-03-20T10:01:42;22.92;38.24
69206;SHT30;56319;48.920;2.332;2023-03-20T10:04:15;22.97;38.23
69206;SHT30;56319;48.920;2.332;2023-03-20T10:06:40;23.00;38.23
69206;SHT30;56319;48.920;2.332;2023-03-20T10:09:16;23.04;38.13
69206;SHT30;56319;48.920;2.332;2023-03-20T10:15:00;23.14;38.13
69206;SHT30;56319;48.920;2.332;2023-03-20T10:17:57;23.18;38.06
69206;SHT30;56319;48.920;2.332;2023-03-20T10:20:33;23.20;38.13
69206;SHT30;56319;48.920;2.332;2023-03-20T10:26:11;23.30;37.91
69206;SHT30;56319;48.920;2.332;2023-03-20T10:28:57;23.33;37.98
69206;SHT30;56319;48.920;2.332;2023-03-20T10:31:44;23.34;37.93
69206;SHT30;56319;48.920;2.332;2023-03-20T10:34:37;23.38;37.82
69206;SHT30;56319;48.920;2.332;2023-03-20T10:40:22;23.45;37.89
69206;SHT30;56319;48.920;2.332;2023-03-20T10:42:51;23.48;37.89
69206;SHT30;56319;48.920;2.332;2023-03-20T10:45:30;23.51;37.81
69206;SHT30;56319;48.920;2.332;2023-03-20T10:48:00;23.51;37.71
69206;SHT30;56319;48.920;2.332;2023-03-20T10:50:32;23.55;37.53
69206;SHT30;56319;48.920;2.332;2023-03-20T10:53:01;23.55;37.46
69206;SHT30;56319;48.920;2.332;2023-03-20T10:55:31;23.54;37.46
69206;SHT30;56319;48.920;2.332;2023-03-20T10:58:13;23.52;37.40
69206;SHT30;56319;48.920;2.332;2023-03-20T11:00:41;23.50;37.43
69206;SHT30;56319;48.920;2.332;2023-03-20T11:03:29;23.50;37.33
69206;SHT30;56319;48.920;2.332;2023-03-20T11:06:00;23.47;37.30
69206;SHT30;56319;48.920;2.332;2023-03-20T11:08:33;23.45;37.22
69206;SHT30;56319;48.920;2.332;2023-03-20T11:11:02;23.45;37.20
69206;SHT30;56319;48.920;2.332;2023-03-20T11:13:34;23.42;37.16
69206;SHT30;56319;48.920;2.332;2023-03-20T11:16:19;23.41;37.09
69206;SHT30;56319;48.920;2.332;2023-03-20T11:18:46;23.37;37.09
69206;SHT30;56319;48.920;2.332;2023-03-20T11:21:17;23.35;37.07
69206;SHT30;56319;48.920;2.332;2023-03-20T11:23:43;23.37;37.02
69206;SHT30;56319;48.920;2.332;2023-03-20T11:26:13;23.35;36.97
69206;SHT30;56319;48.920;2.332;2023-03-20T11:28:53;23.33;36.96
69206;SHT30;56319;48.920;2.332;2023-03-20T11:31:29;23.33;36.97
69206;SHT30;56319;48.920;2.332;2023-03-20T11:34:22;23.30;36.90
69206;SHT30;56319;48.920;2.332;2023-03-20T11:36:57;23.28;36.86
69206;SHT30;56319;48.920;2.332;2023-03-20T11:39:26;23.27;36.82
69206;SHT30;56319;48.920;2.332;2023-03-20T11:41:54;23.27;36.78
69206;SHT30;56319;48.920;2.332;2023-03-20T11:44:33;23.25;36.80
69206;SHT30;56319;48.920;2.332;2023-03-20T11:47:04;23.24;36.78
69206;SHT30;56319;48.920;2.332;2023-03-20T11:49:32;23.23;36.79
69206;SHT30;56319;48.920;2.332;2023-03-20T11:52:12;23.20;36.76
69206;SHT30;56319;48.920;2.332;2023-03-20T11:54:45;23.20;36.73
69206;SHT30;56319;48.920;2.332;2023-03-20T11:57:34;23.16;36.65
69206;SHT30;56319;48.920;2.332;2023-03-20T12:00:04;23.16;36.62
69206;SHT30;56319;48.920;2.332;2023-03-20T12:02:30;23.16;36.62
69206;SHT30;56319;48.920;2.332;2023-03-20T12:04:59;23.16;36.63
69206;SHT30;56319;48.920;2.332;2023-03-20T12:07:30;23.13;36.62
69206;SHT30;56319;48.920;2.332;2023-03-20T12:10:05;23.11;36.59
69206;SHT30;56319;48.920;2.332;2023-03-20T12:12:37;23.10;36.63
69206;SHT30;56319;48.920;2.332;2023-03-20T12:15:28;23.10;36.57
69206;SHT30;56319;48.920;2.332;2023-03-20T12:18:02;23.10;36.67
69206;SHT30;56319;48.920;2.332;2023-03-20T12:23:43;23.08;36.64
69206;SHT30;56319;48.920;2.332;2023-03-20T12:26:17;23.07;36.54
69206;SHT30;56319;48.920;2.332;2023-03-20T12:28:55;23.06;36.70
69206;SHT30;56319;48.920;2.332;2023-03-20T12:31:29;23.07;36.57
69206;SHT30;56319;48.920;2.332;2023-03-20T12:34:21;23.04;35.97
69206;SHT30;56319;48.920;2.332;2023-03-20T12:36:50;22.97;36.12
69206;SHT30;56319;48.920;2.332;2023-03-20T12:39:19;22.96;35.88
69206;SHT30;56319;48.920;2.332;2023-03-20T12:42:03;22.93;35.86
69206;SHT30;56319;48.920;2.332;2023-03-20T12:44:41;22.90;35.79
69206;SHT30;56319;48.920;2.332;2023-03-20T12:47:44;22.88;35.69
69206;SHT30;56319;48.920;2.332;2023-03-20T12:50:34;22.86;35.78
69206;SHT30;56319;48.920;2.332;2023-03-20T12:56:25;22.82;35.90
69206;SHT30;56319;48.920;2.332;2023-03-20T12:59:36;22.85;36.35
69206;SHT30;56319;48.920;2.332;2023-03-20T13:02:20;22.89;36.68
69206;SHT30;56319;48.920;2.332;2023-03-20T13:05:21;22.95;36.91
69206;SHT30;56319;48.920;2.332;2023-03-20T13:14:03;23.17;37.61
69206;SHT30;56319;48.920;2.332;2023-03-20T13:16:41;23.24;37.64
69206;SHT30;56319;48.920;2.332;2023-03-20T13:19:35;23.31;37.64
69206;SHT30;56319;48.920;2.332;2023-03-20T13:22:10;23.38;37.62
69206;SHT30;56319;48.920;2.332;2023-03-20T13:25:01;23.41;37.61
69206;SHT30;56319;48.920;2.332;2023-03-20T13:27:42;23.42;37.53
69206;SHT30;56319;48.920;2.332;2023-03-20T13:36:17;23.57;37.53
69206;SHT30;56319;48.920;2.332;2023-03-20T13:38:48;23.59;37.47
69206;SHT30;56319;48.920;2.332;2023-03-20T13:41:16;23.61;37.45
69206;SHT30;56319;48.920;2.332;2023-03-20T13:43:46;23.59;37.44
69206;SHT30;56319;48.920;2.332;2023-03-20T13:46:17;23.61;37.26
69206;SHT30;56319;48.920;2.332;2023-03-20T13:48:44;23.57;37.12
69206;SHT30;56319;48.920;2.332;2023-03-20T13:54:30;23.54;36.82
69206;SHT30;56319;48.920;2.332;2023-03-20T14:00:27;23.52;36.56
69206;SHT30;56319;48.920;2.332;2023-03-20T14:03:19;23.51;36.67
69206;SHT30;56319;48.920;2.332;2023-03-20T14:05:48;23.52;36.68
69206;SHT30;56319;48.920;2.332;2023-03-20T14:08:21;23.50;36.66
69206;SHT30;56319;48.920;2.332;2023-03-20T14:10:47;23.52;36.70
69206;SHT30;56319;48.920;2.332;2023-03-20T14:13:18;23.51;36.71
69206;SHT30;56319;48.920;2.332;2023-03-20T14:15:53;23.52;36.68
69206;SHT30;56319;48.920;2.332;2023-03-20T14:18:22;23.52;36.65
69206;SHT30;56319;48.920;2.332;2023-03-20T14:20:58;23.51;36.75
69206;SHT30;56319;48.920;2.332;2023-03-20T14:23:33;23.54;36.75
69206;SHT30;56319;48.920;2.332;2023-03-20T14:25:59;23.57;36.80
69206;SHT30;56319;48.920;2.332;2023-03-20T14:28:28;23.54;36.87
69206;SHT30;56319;48.920;2.332;2023-03-20T14:31:26;23.54;36.94
69206;SHT30;56319;48.920;2.332;2023-03-20T14:34:00;23.54;36.98
69206;SHT30;56319;48.920;2.332;2023-03-20T14:39:58;23.54;37.19
69206;SHT30;56319;48.920;2.332;2023-03-20T14:42:49;23.54;37.30
69206;SHT30;56319;48.920;2.332;2023-03-20T14:45:40;23.58;37.32
69206;SHT30;56319;48.920;2.332;2023-03-20T14:48:40;23.59;37.37
69206;SHT30;56319;48.920;2.332;2023-03-20T14:51:40;23.58;37.40
69206;SHT30;56319;48.920;2.332;2023-03-20T14:54:28;23.61;37.52
69206;SHT30;56319;48.920;2.332;2023-03-20T14:56:55;23.62;38.34
69206;SHT30;56319;48.920;2.332;2023-03-20T14:59:32;23.62;38.15
69206;SHT30;56319;48.920;2.332;2023-03-20T15:01:59;23.62;38.17
69206;SHT30;56319;48.920;2.332;2023-03-20T15:04:33;23.63;38.13
69206;SHT30;56319;48.920;2.332;2023-03-20T15:07:04;23.63;38.10
69206;SHT30;56319;48.920;2.332;2023-03-20T15:09:34;23.58;38.15
69206;SHT30;56319;48.920;2.332;2023-03-20T15:12:02;23.57;38.17
69206;SHT30;56319;48.920;2.332;2023-03-20T15:14:33;23.58;38.18
69206;SHT30;56319;48.920;2.332;2023-03-20T15:17:01;23.57;38.23
69206;SHT30;56319;48.920;2.332;2023-03-20T15:19:27;23.54;38.30
69206;SHT30;56319;48.920;2.332;2023-03-20T15:21:54;23.51;38.33
69206;SHT30;56319;48.920;2.332;2023-03-20T15:24:22;23.51;38.30
69206;SHT30;56319;48.920;2.332;2023-03-20T15:26:53;23.50;38.35
69206;SHT30;56319;48.920;2.332;2023-03-20T15:29:19;23.45;38.29
69206;SHT30;56319;48.920;2.332;2023-03-20T15:31:45;23.42;38.37
69206;SHT30;56319;48.920;2.332;2023-03-20T15:34:17;23.42;38.34
69206;SHT30;56319;48.920;2.332;2023-03-20T15:36:44;23.41;38.34
69206;SHT30;56319;48.920;2.332;2023-03-20T15:39:21;23.40;38.33
69206;SHT30;56319;48.920;2.332;2023-03-20T15:41:55;23.37;38.27
69206;SHT30;56319;48.920;2.332;2023-03-20T15:44:24;23.37;38.28
69206;SHT30;56319;48.920;2.332;2023-03-20T15:46:59;23.33;38.31
69206;SHT30;56319;48.920;2.332;2023-03-20T15:49:26;23.33;38.25
69206;SHT30;56319;48.920;2.332;2023-03-20T15:51:54;23.31;38.29
69206;SHT30;56319;48.920;2.332;2023-03-20T15:54:21;23.27;38.25
69206;SHT30;56319;48.920;2.332;2023-03-20T15:56:49;23.25;38.21
69206;SHT30;56319;48.920;2.332;2023-03-20T15:59:17;23.24;38.26
69206;SHT30;56319;48.920;2.332;2023-03-20T16:01:45;23.20;38.19
69206;SHT30;56319;48.920;2.332;2023-03-20T16:04:14;23.20;38.18
69206;SHT30;56319;48.920;2.332;2023-03-20T16:06:51;23.20;38.20
69206;SHT30;56319;48.920;2.332;2023-03-20T16:09:16;23.16;38.21
69206;SHT30;56319;48.920;2.332;2023-03-20T16:11:45;23.16;38.18
69206;SHT30;56319;48.920;2.332;2023-03-20T16:14:19;23.14;38.24
69206;SHT30;56319;48.920;2.332;2023-03-20T16:16:48;23.11;38.20
69206;SHT30;56319;48.920;2.332;2023-03-20T16:19:15;23.11;38.20
69206;SHT30;56319;48.920;2.332;2023-03-20T16:21:46;23.08;38.20
69206;SHT30;56319;48.920;2.332;2023-03-20T16:24:18;23.07;38.20
69206;SHT30;56319;48.920;2.332;2023-03-20T16:26:48;23.07;38.19
69206;SHT30;56319;48.920;2.332;2023-03-20T16:29:16;23.06;38.17
69206;SHT30;56319;48.920;2.332;2023-03-20T16:31:47;23.06;38.17
69206;SHT30;56319;48.920;2.332;2023-03-20T16:34:18;23.07;38.19
69206;SHT30;56319;48.920;2.332;2023-03-20T16:36:52;23.04;38.17
69206;SHT30;56319;48.920;2.332;2023-03-20T16:39:19;23.03;38.18
69206;SHT30;56319;48.920;2.332;2023-03-20T16:41:46;23.02;38.14
69206;SHT30;56319;48.920;2.332;2023-03-20T16:44:19;23.00;38.17
69206;SHT30;56319;48.920;2.332;2023-03-20T16:50:11;22.97;38.15
69206;SHT30;56319;48.920;2.332;2023-03-20T16:52:44;22.99;38.09